sensor_id;sensor_type;location;lat;lon;timestamp;pressure;altitude;pressure_sealevel;temperature;humidity
64544;BME280;50936;51.660;5.616;2023-03-21T00:02:03;101323.19;;;9.35;100.00
64544;BME280;50936;51.660;5.616;2023-03-21T00:04:30;101319.72;;;9.33;100.00
64544;BME280;50936;51.660;5.616;2023-03-21T00:07:16;101314.66;;;9.27;100.00
64544;BME280;50936;51.660;5.616;2023-03-21T00:09:42;101311.88;;;9.28;100.00
64544;BME280;50936;51.660;5.616;2023-03-21T00:12:09;101311.03;;;9.28;100.00
64544;BME280;50936;51.660;5.616;2023-03-21T00:14:37;101310.16;;;9.27;100.00
64544;BME280;50936;51.660;5.616;2023-03-21T00:17:04;101305.63;;;9.28;100.00
64544;BME280;50936;51.660;5.616;2023-03-21T00:19:31;101302.00;;;9.29;100.00
64544;BME280;50936;51.660;5.616;2023-03-21T00:21:58;101298.31;;;9.30;100.00
64544;BME280;50936;51.660;5.616;2023-03-21T00:24:34;101303.56;;;9.33;100.00
64544;BME280;50936;51.660;5.616;2023-03-21T00:27:02;101303.34;;;9.36;100.00
64544;BME280;50936;51.660;5.616;2023-03-21T00:29:49;101296.25;;;9.35;100.00
64544;BME280;50936;51.660;5.616;2023-03-21T00:32:20;101301.63;;;9.35;100.00
64544;BME280;50936;51.660;5.616;2023-03-21T00:34:47;101294.69;;;9.31;100.00
64544;BME280;50936;51.660;5.616;2023-03-21T00:37:32;101296.84;;;9.24;100.00
64544;BME280;50936;51.660;5.616;2023-03-21T00:39:58;101292.59;;;9.20;100.00
64544;BME280;50936;51.660;5.616;2023-03-21T00:42:26;101291.72;;;9.19;100.00
64544;BME280;50936;51.660;5.616;2023-03-21T00:44:53;101283.91;;;9.15;100.00
64544;BME280;50936;51.660;5.616;2023-03-21T00:47:20;101283.19;;;9.11;100.00
64544;BME280;50936;51.660;5.616;2023-03-21T00:49:49;101281.66;;;9.07;100.00
64544;BME280;50936;51.660;5.616;2023-03-21T00:52:17;101278.16;;;9.05;100.00
64544;BME280;50936;51.660;5.616;2023-03-21T00:55:05;101281.81;;;9.04;100.00
64544;BME280;50936;51.660;5.616;2023-03-21T00:57:33;101272.94;;;9.02;100.00
64544;BME280;50936;51.660;5.616;2023-03-21T01:00:06;101272.00;;;9.03;100.00
64544;BME280;50936;51.660;5.616;2023-03-21T01:02:37;101265.63;;;9.04;100.00
64544;BME280;50936;51.660;5.616;2023-03-21T01:05:10;101261.88;;;9.06;100.00
64544;BME280;50936;51.660;5.616;2023-03-21T01:07:37;101258.16;;;9.09;100.00
64544;BME280;50936;51.660;5.616;2023-03-21T01:10:04;101260.88;;;9.09;100.00
64544;BME280;50936;51.660;5.616;2023-03-21T01:12:31;101260.09;;;9.07;100.00
64544;BME280;50936;51.660;5.616;2023-03-21T01:14:58;101260.09;;;9.07;100.00
64544;BME280;50936;51.660;5.616;2023-03-21T01:17:26;101252.94;;;9.06;100.00
64544;BME280;50936;51.660;5.616;2023-03-21T01:19:53;101252.00;;;9.07;100.00
64544;BME280;50936;51.660;5.616;2023-03-21T01:22:19;101245.84;;;9.05;100.00
64544;BME280;50936;51.660;5.616;2023-03-21T01:24:47;101243.91;;;9.07;100.00
64544;BME280;50936;51.660;5.616;2023-03-21T01:27:34;101243.72;;;9.10;100.00
64544;BME280;50936;51.660;5.616;2023-03-21T01:30:01;101236.44;;;9.12;100.00
64544;BME280;50936;51.660;5.616;2023-03-21T01:32:34;101236.25;;;9.15;100.00
64544;BME280;50936;51.660;5.616;2023-03-21T01:35:01;101230.69;;;9.18;100.00
64544;BME280;50936;51.660;5.616;2023-03-21T01:37:28;101235.91;;;9.21;100.00
64544;BME280;50936;51.660;5.616;2023-03-21T01:39:54;101227.72;;;9.23;100.00
64544;BME280;50936;51.660;5.616;2023-03-21T01:42:22;101231.09;;;9.27;100.00
64544;BME280;50936;51.660;5.616;2023-03-21T01:45:01;101221.13;;;9.29;100.00
64544;BME280;50936;51.660;5.616;2023-03-21T01:47:43;101215.75;;;9.29;100.00
64544;BME280;50936;51.660;5.616;2023-03-21T01:50:21;101208.31;;;9.32;100.00
64544;BME280;50936;51.660;5.616;2023-03-21T01:52:57;101208.22;;;9.34;100.00
64544;BME280;50936;51.660;5.616;2023-03-21T01:55:27;101209.97;;;9.35;100.00
64544;BME280;50936;51.660;5.616;2023-03-21T01:58:20;101208.06;;;9.37;100.00
64544;BME280;50936;51.660;5.616;2023-03-21T02:01:17;101206.13;;;9.39;100.00
64544;BME280;50936;51.660;5.616;2023-03-21T02:03:56;101204.22;;;9.41;100.00
64544;BME280;50936;51.660;5.616;2023-03-21T02:07:11;101188.81;;;9.43;100.00
64544;BME280;50936;51.660;5.616;2023-03-21T02:09:55;101189.59;;;9.45;100.00
64544;BME280;50936;51.660;5.616;2023-03-21T02:12:25;101193.09;;;9.47;100.00
64544;BME280;50936;51.660;5.616;2023-03-21T02:14:53;101193.09;;;9.47;100.00
64544;BME280;50936;51.660;5.616;2023-03-21T02:17:46;101188.47;;;9.49;100.00
64544;BME280;50936;51.660;5.616;2023-03-21T02:35:24;101159.84;;;9.47;100.00
64544;BME280;50936;51.660;5.616;2023-03-21T02:38:14;101155.13;;;9.50;100.00
64544;BME280;50936;51.660;5.616;2023-03-21T02:44:16;101158.72;;;9.51;100.00
64544;BME280;50936;51.660;5.616;2023-03-21T02:46:56;101149.84;;;9.49;100.00
64544;BME280;50936;51.660;5.616;2023-03-21T02:49:43;101159.00;;;9.46;100.00
64544;BME280;50936;51.660;5.616;2023-03-21T02:52:21;101148.59;;;9.40;100.00
64544;BME280;50936;51.660;5.616;2023-03-21T02:55:11;101148.75;;;9.37;100.00
64544;BME280;50936;51.660;5.616;2023-03-21T02:58:13;101152.59;;;9.33;100.00
64544;BME280;50936;51.660;5.616;2023-03-21T03:00:48;101162.69;;;9.29;100.00
64544;BME280;50936;51.660;5.616;2023-03-21T03:03:27;101153.06;;;9.25;100.00
64544;BME280;50936;51.660;5.616;2023-03-21T03:06:02;101153.31;;;9.20;100.00
64544;BME280;50936;51.660;5.616;2023-03-21T03:08:44;101141.16;;;9.13;100.00
64544;BME280;50936;51.660;5.616;2023-03-21T03:11:37;101148.63;;;9.08;100.00
64544;BME280;50936;51.660;5.616;2023-03-21T03:14:42;101146.84;;;9.09;100.00
64544;BME280;50936;51.660;5.616;2023-03-21T03:25:44;101141.00;;;9.00;100.00
64544;BME280;50936;51.660;5.616;2023-03-21T03:28:29;101138.22;;;9.02;100.00
64544;BME280;50936;51.660;5.616;2023-03-21T03:31:03;101134.59;;;9.03;100.00
64544;BME280;50936;51.660;5.616;2023-03-21T03:33:43;101129.19;;;9.03;100.00
64544;BME280;50936;51.660;5.616;2023-03-21T03:36:15;101129.19;;;9.03;100.00
64544;BME280;50936;51.660;5.616;2023-03-21T03:38:59;101122.84;;;9.04;100.00
64544;BME280;50936;51.660;5.616;2023-03-21T03:41:32;101124.94;;;8.99;100.00
64544;BME280;50936;51.660;5.616;2023-03-21T03:44:29;101123.47;;;8.93;100.00
64544;BME280;50936;51.660;5.616;2023-03-21T03:47:11;101125.22;;;8.94;100.00
64544;BME280;50936;51.660;5.616;2023-03-21T03:50:13;101122.78;;;8.90;100.00
64544;BME280;50936;51.660;5.616;2023-03-21T03:52:55;101119.81;;;8.94;100.00
64544;BME280;50936;51.660;5.616;2023-03-21T03:55:36;101119.38;;;9.02;100.00
64544;BME280;50936;51.660;5.616;2023-03-21T03:58:09;101116.31;;;9.08;100.00
64544;BME280;50936;51.660;5.616;2023-03-21T04:00:47;101110.91;;;9.08;100.00
64544;BME280;50936;51.660;5.616;2023-03-21T04:03:16;101105.34;;;9.11;100.00
64544;BME280;50936;51.660;5.616;2023-03-21T04:05:44;101108.13;;;9.10;100.00
64544;BME280;50936;51.660;5.616;2023-03-21T04:08:15;101102.06;;;9.06;100.00
64544;BME280;50936;51.660;5.616;2023-03-21T04:10:47;101098.59;;;9.04;100.00
64544;BME280;50936;51.660;5.616;2023-03-21T04:13:15;101098.22;;;9.10;100.00
64544;BME280;50936;51.660;5.616;2023-03-21T04:15:58;101102.66;;;9.11;100.00
64544;BME280;50936;51.660;5.616;2023-03-21T04:18:26;101103.59;;;9.10;100.00
64544;BME280;50936;51.660;5.616;2023-03-21T04:20:53;101099.03;;;9.12;100.00
64544;BME280;50936;51.660;5.616;2023-03-21T04:23:20;101098.22;;;9.10;100.00
64544;BME280;50936;51.660;5.616;2023-03-21T04:25:49;101096.50;;;9.09;100.00
64544;BME280;50936;51.660;5.616;2023-03-21T04:28:32;101098.22;;;9.10;100.00
64544;BME280;50936;51.660;5.616;2023-03-21T04:31:19;101093.97;;;9.06;100.00
64544;BME280;50936;51.660;5.616;2023-03-21T04:34:02;101089.56;;;9.05;100.00
64544;BME280;50936;51.660;5.616;2023-03-21T04:36:38;101084.16;;;9.05;100.00
64544;BME280;50936;51.660;5.616;2023-03-21T04:39:08;101088.25;;;9.12;100.00
64544;BME280;50936;51.660;5.616;2023-03-21T04:41:42;101081.09;;;9.11;100.00
64544;BME280;50936;51.660;5.616;2023-03-21T04:44:12;101080.50;;;9.06;100.00
64544;BME280;50936;51.660;5.616;2023-03-21T04:46:40;101082.41;;;9.04;100.00
64544;BME280;50936;51.660;5.616;2023-03-21T04:49:09;101084.34;;;9.02;100.00
64544;BME280;50936;51.660;5.616;2023-03-21T04:51:36;101076.53;;;8.97;100.00
64544;BME280;50936;51.660;5.616;2023-03-21T04:54:08;101071.41;;;8.93;100.00
64544;BME280;50936;51.660;5.616;2023-03-21T04:56:35;101070.66;;;8.91;100.00
64544;BME280;50936;51.660;5.616;2023-03-21T04:59:09;101080.66;;;8.89;100.00
64544;BME280;50936;51.660;5.616;2023-03-21T05:01:39;101063.88;;;8.83;100.00
64544;BME280;50936;51.660;5.616;2023-03-21T05:04:08;101061.97;;;8.85;100.00
64544;BME280;50936;51.660;5.616;2023-03-21T05:06:38;101056.56;;;8.85;100.00
64544;BME280;50936;51.660;5.616;2023-03-21T05:09:07;101064.66;;;8.85;100.00
64544;BME280;50936;51.660;5.616;2023-03-21T05:11:36;101064.56;;;8.87;100.00
64544;BME280;50936;51.660;5.616;2023-03-21T05:14:08;101062.56;;;8.91;100.00
64544;BME280;50936;51.660;5.616;2023-03-21T05:16:38;101069.31;;;8.98;100.00
64544;BME280;50936;51.660;5.616;2023-03-21T05:19:11;101062.09;;;8.98;100.00
64544;BME280;50936;51.660;5.616;2023-03-21T05:21:41;101060.88;;;9.04;100.00
64544;BME280;50936;51.660;5.616;2023-03-21T05:24:18;101053.94;;;9.00;100.00
64544;BME280;50936;51.660;5.616;2023-03-21T05:26:48;101053.34;;;8.95;100.00
64544;BME280;50936;51.660;5.616;2023-03-21T05:29:18;101055.66;;;9.01;100.00
64544;BME280;50936;51.660;5.616;2023-03-21T05:31:51;101056.53;;;9.01;100.00
64544;BME280;50936;51.660;5.616;2023-03-21T05:34:19;101055.47;;;9.04;100.00
64544;BME280;50936;51.660;5.616;2023-03-21T05:36:46;101055.47;;;9.04;100.00
64544;BME280;50936;51.660;5.616;2023-03-21T05:39:14;101057.22;;;9.05;100.00
64544;BME280;50936;51.660;5.616;2023-03-21T05:41:50;101054.25;;;9.10;100.00
64544;BME280;50936;51.660;5.616;2023-03-21T05:44:16;101063.63;;;9.18;100.00
64544;BME280;50936;51.660;5.616;2023-03-21T05:46:44;101054.53;;;9.19;100.00
64544;BME280;50936;51.660;5.616;2023-03-21T05:49:11;101058.03;;;9.21;100.00
64544;BME280;50936;51.660;5.616;2023-03-21T05:51:40;101059.84;;;9.21;100.00
64544;BME280;50936;51.660;5.616;2023-03-21T05:54:08;101051.97;;;9.18;100.00
64544;BME280;50936;51.660;5.616;2023-03-21T05:56:35;101051.19;;;9.16;100.00
64544;BME280;50936;51.660;5.616;2023-03-21T05:59:04;101050.13;;;9.18;100.00
64544;BME280;50936;51.660;5.616;2023-03-21T06:01:38;101047.06;;;9.24;100.00
64544;BME280;50936;51.660;5.616;2023-03-21T06:04:10;101045.72;;;9.32;100.00
64544;BME280;50936;51.660;5.616;2023-03-21T06:06:38;101050.25;;;9.31;100.00
64544;BME280;50936;51.660;5.616;2023-03-21T06:09:09;101045.94;;;9.29;100.00
64544;BME280;50936;51.660;5.616;2023-03-21T06:11:39;101048.63;;;9.29;100.00
64544;BME280;50936;51.660;5.616;2023-03-21T06:14:44;101041.00;;;9.21;100.00
64544;BME280;50936;51.660;5.616;2023-03-21T06:17:27;101044.19;;;9.28;100.00
64544;BME280;50936;51.660;5.616;2023-03-21T06:20:01;101043.81;;;9.34;100.00
64544;BME280;50936;51.660;5.616;2023-03-21T06:22:40;101047.28;;;9.36;100.00
64544;BME280;50936;51.660;5.616;2023-03-21T06:25:07;101051.72;;;9.37;100.00
64544;BME280;50936;51.660;5.616;2023-03-21T06:27:35;101047.84;;;9.41;100.00
64544;BME280;50936;51.660;5.616;2023-03-21T06:30:05;101055.09;;;9.40;100.00
64544;BME280;50936;51.660;5.616;2023-03-21T06:32:40;101054.13;;;9.41;100.00
64544;BME280;50936;51.660;5.616;2023-03-21T06:35:11;101056.53;;;9.46;100.00
64544;BME280;50936;51.660;5.616;2023-03-21T06:37:38;101056.34;;;9.49;100.00
64544;BME280;50936;51.660;5.616;2023-03-21T06:40:06;101055.19;;;9.53;100.00
64544;BME280;50936;51.660;5.616;2023-03-21T06:42:34;101059.53;;;9.56;100.00
64544;BME280;50936;51.660;5.616;2023-03-21T06:45:08;101061.38;;;9.55;100.00
64544;BME280;50936;51.660;5.616;2023-03-21T06:47:35;101060.19;;;9.59;100.00
64544;BME280;50936;51.660;5.616;2023-03-21T06:50:05;101054.63;;;9.62;100.00
64544;BME280;50936;51.660;5.616;2023-03-21T06:52:39;101056.16;;;9.67;100.00
64544;BME280;50936;51.660;5.616;2023-03-21T06:55:07;101061.47;;;9.68;100.00
64544;BME280;50936;51.660;5.616;2023-03-21T06:57:34;101057.91;;;9.68;100.00
64544;BME280;50936;51.660;5.616;2023-03-21T07:00:02;101064.25;;;9.67;100.00
64544;BME280;50936;51.660;5.616;2023-03-21T07:02:31;101061.56;;;9.67;100.00
64544;BME280;50936;51.660;5.616;2023-03-21T07:05:07;101061.66;;;9.65;100.00
64544;BME280;50936;51.660;5.616;2023-03-21T07:07:35;101060.97;;;9.61;100.00
64544;BME280;50936;51.660;5.616;2023-03-21T07:10:03;101061.38;;;9.55;100.00
64544;BME280;50936;51.660;5.616;2023-03-21T07:12:40;101068.84;;;9.50;100.00
64544;BME280;50936;51.660;5.616;2023-03-21T07:15:21;101062.09;;;9.43;100.00
64544;BME280;50936;51.660;5.616;2023-03-21T07:17:49;101062.31;;;9.40;100.00
64544;BME280;50936;51.660;5.616;2023-03-21T07:20:16;101075.03;;;9.38;100.00
64544;BME280;50936;51.660;5.616;2023-03-21T07:22:43;101077.13;;;9.33;100.00
64544;BME280;50936;51.660;5.616;2023-03-21T07:25:12;101063.06;;;9.28;100.00
64544;BME280;50936;51.660;5.616;2023-03-21T07:27:39;101078.53;;;9.24;100.00
64544;BME280;50936;51.660;5.616;2023-03-21T07:30:08;101085.09;;;9.20;100.00
64544;BME280;50936;51.660;5.616;2023-03-21T07:32:37;101082.56;;;9.17;100.00
64544;BME280;50936;51.660;5.616;2023-03-21T07:35:09;101078.25;;;9.14;100.00
64544;BME280;50936;51.660;5.616;2023-03-21T07:37:39;101094.41;;;9.14;100.00
64544;BME280;50936;51.660;5.616;2023-03-21T07:40:07;101082.84;;;9.12;100.00
64544;BME280;50936;51.660;5.616;2023-03-21T07:42:41;101087.25;;;9.13;100.00
64544;BME280;50936;51.660;5.616;2023-03-21T07:45:10;101089.00;;;9.14;100.00
64544;BME280;50936;51.660;5.616;2023-03-21T07:47:43;101088.94;;;9.16;100.00
64544;BME280;50936;51.660;5.616;2023-03-21T07:50:11;101083.63;;;9.14;100.00
64544;BME280;50936;51.660;5.616;2023-03-21T07:52:38;101084.47;;;9.15;100.00
64544;BME280;50936;51.660;5.616;2023-03-21T07:55:05;101082.66;;;9.15;100.00
64544;BME280;50936;51.660;5.616;2023-03-21T07:57:32;101086.22;;;9.16;100.00
64544;BME280;50936;51.660;5.616;2023-03-21T07:59:59;101079.94;;;9.15;100.00
64544;BME280;50936;51.660;5.616;2023-03-21T08:02:26;101078.25;;;9.14;100.00
64544;BME280;50936;51.660;5.616;2023-03-21T08:04:53;101071.09;;;9.13;100.00
64544;BME280;50936;51.660;5.616;2023-03-21T08:07:20;101079.00;;;9.16;100.00
64544;BME280;50936;51.660;5.616;2023-03-21T08:09:47;101073.53;;;9.18;100.00
64544;BME280;50936;51.660;5.616;2023-03-21T08:12:14;101069.69;;;9.22;100.00
64544;BME280;50936;51.660;5.616;2023-03-21T08:14:42;101061.50;;;9.23;100.00
64544;BME280;50936;51.660;5.616;2023-03-21T08:17:09;101066.91;;;9.23;100.00
64544;BME280;50936;51.660;5.616;2023-03-21T08:19:36;101051.59;;;9.24;100.00
64544;BME280;50936;51.660;5.616;2023-03-21T08:22:03;101045.59;;;9.19;100.00
64544;BME280;50936;51.660;5.616;2023-03-21T08:24:32;101035.69;;;9.19;100.00
64544;BME280;50936;51.660;5.616;2023-03-21T08:27:00;101034.06;;;9.17;100.00
64544;BME280;50936;51.660;5.616;2023-03-21T08:29:27;101038.38;;;9.19;100.00
64544;BME280;50936;51.660;5.616;2023-03-21T08:31:54;101030.88;;;9.24;100.00
64544;BME280;50936;51.660;5.616;2023-03-21T08:34:21;101030.72;;;9.28;100.00
64544;BME280;50936;51.660;5.616;2023-03-21T08:36:48;101025.03;;;9.32;100.00
64544;BME280;50936;51.660;5.616;2023-03-21T08:39:15;101031.00;;;9.37;100.00
64544;BME280;50936;51.660;5.616;2023-03-21T08:41:42;101018.50;;;9.36;100.00
64544;BME280;50936;51.660;5.616;2023-03-21T08:44:09;101026.50;;;9.38;100.00
64544;BME280;50936;51.660;5.616;2023-03-21T08:46:36;101025.03;;;9.47;100.00
64544;BME280;50936;51.660;5.616;2023-03-21T08:49:03;101034.78;;;9.49;100.00
64544;BME280;50936;51.660;5.616;2023-03-21T08:51:30;101040.88;;;9.53;100.00
64544;BME280;50936;51.660;5.616;2023-03-21T08:53:59;101028.16;;;9.55;100.00
64544;BME280;50936;51.660;5.616;2023-03-21T08:56:25;101036.16;;;9.56;100.00
64544;BME280;50936;51.660;5.616;2023-03-21T08:58:52;101031.59;;;9.57;100.00
64544;BME280;50936;51.660;5.616;2023-03-21T09:01:19;101033.63;;;9.53;100.00
64544;BME280;50936;51.660;5.616;2023-03-21T09:03:46;101027.28;;;9.54;100.00
64544;BME280;50936;51.660;5.616;2023-03-21T09:06:13;101022.75;;;9.55;100.00
64544;BME280;50936;51.660;5.616;2023-03-21T09:08:41;101015.44;;;9.57;100.00
64544;BME280;50936;51.660;5.616;2023-03-21T09:11:09;101010.03;;;9.57;100.00
64544;BME280;50936;51.660;5.616;2023-03-21T09:13:36;101018.81;;;9.60;100.00
64544;BME280;50936;51.660;5.616;2023-03-21T09:16:03;101014.19;;;9.62;100.00
64544;BME280;50936;51.660;5.616;2023-03-21T09:18:30;101005.22;;;9.62;100.00
64544;BME280;50936;51.660;5.616;2023-03-21T09:21:16;101008.97;;;9.59;100.00
64544;BME280;50936;51.660;5.616;2023-03-21T09:23:43;101003.38;;;9.62;100.00
64544;BME280;50936;51.660;5.616;2023-03-21T09:26:11;101001.47;;;9.64;100.00
64544;BME280;50936;51.660;5.616;2023-03-21T09:28:39;101003.97;;;9.68;100.00
64544;BME280;50936;51.660;5.616;2023-03-21T09:31:06;101000.88;;;9.74;100.00
64544;BME280;50936;51.660;5.616;2023-03-21T09:33:37;101003.97;;;9.82;100.00
64544;BME280;50936;51.660;5.616;2023-03-21T09:36:09;100998.16;;;9.88;100.00
64544;BME280;50936;51.660;5.616;2023-03-21T09:38:41;100993.16;;;9.96;100.00
64544;BME280;50936;51.660;5.616;2023-03-21T09:44:29;100994.19;;;10.08;100.00
64544;BME280;50936;51.660;5.616;2023-03-21T09:49:40;100990.59;;;10.22;100.00
64544;BME280;50936;51.660;5.616;2023-03-21T09:52:21;100979.56;;;10.25;100.00
64544;BME280;50936;51.660;5.616;2023-03-21T09:54:54;100975.69;;;10.29;100.00
64544;BME280;50936;51.660;5.616;2023-03-21T09:57:30;100975.34;;;10.35;100.00
64544;BME280;50936;51.660;5.616;2023-03-21T10:00:06;100968.88;;;10.38;100.00
64544;BME280;50936;51.660;5.616;2023-03-21T10:02:48;100971.28;;;10.43;100.00
64544;BME280;50936;51.660;5.616;2023-03-21T10:05:23;100959.84;;;10.52;100.00
64544;BME280;50936;51.660;5.616;2023-03-21T10:08:01;100965.69;;;10.58;100.00
64544;BME280;50936;51.660;5.616;2023-03-21T10:10:36;100958.81;;;10.67;100.00
64544;BME280;50936;51.660;5.616;2023-03-21T10:13:26;100958.59;;;10.70;100.00
64544;BME280;50936;51.660;5.616;2023-03-21T10:16:00;100957.22;;;10.77;100.00
64544;BME280;50936;51.660;5.616;2023-03-21T10:18:37;100954.94;;;10.84;100.00
64544;BME280;50936;51.660;5.616;2023-03-21T10:21:06;100947.16;;;10.79;100.00
64544;BME280;50936;51.660;5.616;2023-03-21T10:24:14;100950.63;;;10.82;100.00
64544;BME280;50936;51.660;5.616;2023-03-21T10:26:45;100944.78;;;10.88;100.00
64544;BME280;50936;51.660;5.616;2023-03-21T10:29:15;100949.69;;;10.95;100.00
64544;BME280;50936;51.660;5.616;2023-03-21T10:31:45;100950.84;;;11.04;100.00
64544;BME280;50936;51.660;5.616;2023-03-21T10:34:35;100947.00;;;11.08;100.00
64544;BME280;50936;51.660;5.616;2023-03-21T10:37:05;100939.63;;;11.10;100.00
64544;BME280;50936;51.660;5.616;2023-03-21T10:39:37;100940.94;;;11.17;100.00
64544;BME280;50936;51.660;5.616;2023-03-21T10:42:17;100938.75;;;11.23;100.00
64544;BME280;50936;51.660;5.616;2023-03-21T10:44:49;100934.88;;;11.27;100.00
64544;BME280;50936;51.660;5.616;2023-03-21T10:47:25;100947.19;;;11.31;100.00
64544;BME280;50936;51.660;5.616;2023-03-21T10:49:54;100936.25;;;11.45;100.00
64544;BME280;50936;51.660;5.616;2023-03-21T10:52:42;100938.31;;;11.54;100.00
64544;BME280;50936;51.660;5.616;2023-03-21T10:55:28;100941.94;;;11.66;100.00
64544;BME280;50936;51.660;5.616;2023-03-21T10:58:02;100937.28;;;11.68;100.00
64544;BME280;50936;51.660;5.616;2023-03-21T11:00:36;100947.47;;;11.65;100.00
64544;BME280;50936;51.660;5.616;2023-03-21T11:03:25;100951.69;;;11.69;100.00
64544;BME280;50936;51.660;5.616;2023-03-21T11:06:00;100931.84;;;11.81;100.00
64544;BME280;50936;51.660;5.616;2023-03-21T11:08:37;100946.66;;;11.88;100.00
64544;BME280;50936;51.660;5.616;2023-03-21T11:11:09;100941.25;;;11.88;100.00
64544;BME280;50936;51.660;5.616;2023-03-21T11:13:55;100941.91;;;11.92;100.00
64544;BME280;50936;51.660;5.616;2023-03-21T11:16:30;100948.72;;;11.98;100.00
64544;BME280;50936;51.660;5.616;2023-03-21T11:19:17;100943.41;;;12.09;100.00
64544;BME280;50936;51.660;5.616;2023-03-21T11:21:56;100935.56;;;12.17;100.00
64544;BME280;50936;51.660;5.616;2023-03-21T11:24:27;100928.06;;;12.21;100.00
64544;BME280;50936;51.660;5.616;2023-03-21T11:26:56;100927.97;;;12.22;100.00
64544;BME280;50936;51.660;5.616;2023-03-21T11:29:45;100928.50;;;12.27;100.00
64544;BME280;50936;51.660;5.616;2023-03-21T11:32:24;100921.44;;;12.25;100.00
64544;BME280;50936;51.660;5.616;2023-03-21T11:35:16;100925.53;;;12.30;100.00
64544;BME280;50936;51.660;5.616;2023-03-21T11:37:51;100921.00;;;12.31;100.00
64544;BME280;50936;51.660;5.616;2023-03-21T11:40:33;100918.91;;;12.35;100.00
64544;BME280;50936;51.660;5.616;2023-03-21T11:43:25;100929.16;;;12.42;100.00
64544;BME280;50936;51.660;5.616;2023-03-21T11:45:57;100917.00;;;12.48;100.00
64544;BME280;50936;51.660;5.616;2023-03-21T11:48:38;100903.97;;;12.53;100.00
64544;BME280;50936;51.660;5.616;2023-03-21T11:54:22;100904.03;;;12.76;100.00
64544;BME280;50936;51.660;5.616;2023-03-21T11:57:05;100915.88;;;12.86;100.00
64544;BME280;50936;51.660;5.616;2023-03-21T12:00:03;100904.78;;;12.89;100.00
64544;BME280;50936;51.660;5.616;2023-03-21T12:05:42;100911.66;;;12.82;100.00
64544;BME280;50936;51.660;5.616;2023-03-21T12:11:27;100886.56;;;12.91;100.00
64544;BME280;50936;51.660;5.616;2023-03-21T12:14:05;100886.81;;;12.99;100.00
64544;BME280;50936;51.660;5.616;2023-03-21T12:17:04;100884.34;;;13.07;100.00
64544;BME280;50936;51.660;5.616;2023-03-21T12:20:02;100886.34;;;13.17;100.00
64544;BME280;50936;51.660;5.616;2023-03-21T12:25:35;100881.91;;;13.04;100.00
64544;BME280;50936;51.660;5.616;2023-03-21T12:31:09;100869.75;;;13.33;100.00
64544;BME280;50936;51.660;5.616;2023-03-21T12:37:31;100860.22;;;13.50;100.00
64544;BME280;50936;51.660;5.616;2023-03-21T12:39:49;100875.50;;;13.62;100.00
64544;BME280;50936;51.660;5.616;2023-03-21T12:45:21;100858.09;;;13.64;100.00
64544;BME280;50936;51.660;5.616;2023-03-21T12:48:02;100866.72;;;13.70;100.00
64544;BME280;50936;51.660;5.616;2023-03-21T12:50:43;100857.25;;;13.64;98.03
64544;BME280;50936;51.660;5.616;2023-03-21T12:53:38;100856.28;;;13.54;98.97
64544;BME280;50936;51.660;5.616;2023-03-21T12:56:23;100847.91;;;13.45;98.80
64544;BME280;50936;51.660;5.616;2023-03-21T12:59:02;100861.22;;;13.48;99.69
64544;BME280;50936;51.660;5.616;2023-03-21T13:01:41;100834.72;;;13.52;98.91
64544;BME280;50936;51.660;5.616;2023-03-21T13:06:51;100839.25;;;13.63;99.50
64544;BME280;50936;51.660;5.616;2023-03-21T13:09:35;100841.31;;;13.71;99.10
64544;BME280;50936;51.660;5.616;2023-03-21T13:12:25;100846.63;;;13.72;97.80
64544;BME280;50936;51.660;5.616;2023-03-21T13:15:26;100846.97;;;13.79;96.70
64544;BME280;50936;51.660;5.616;2023-03-21T13:20:57;100830.06;;;14.19;96.28
64544;BME280;50936;51.660;5.616;2023-03-21T13:23:36;100833.13;;;14.25;95.81
64544;BME280;50936;51.660;5.616;2023-03-21T13:26:10;100832.38;;;14.44;95.20
64544;BME280;50936;51.660;5.616;2023-03-21T13:28:39;100828.16;;;14.52;93.53
64544;BME280;50936;51.660;5.616;2023-03-21T13:31:19;100816.91;;;14.56;93.50
64544;BME280;50936;51.660;5.616;2023-03-21T13:33:52;100812.06;;;14.81;91.78
64544;BME280;50936;51.660;5.616;2023-03-21T13:36:29;100826.66;;;15.11;90.65
64544;BME280;50936;51.660;5.616;2023-03-21T13:39:00;100825.41;;;15.15;88.22
64544;BME280;50936;51.660;5.616;2023-03-21T13:41:35;100814.09;;;15.19;87.07
64544;BME280;50936;51.660;5.616;2023-03-21T13:55:44;100806.53;;;14.92;89.06
64544;BME280;50936;51.660;5.616;2023-03-21T13:58:39;100789.09;;;14.95;87.32
64544;BME280;50936;51.660;5.616;2023-03-21T14:04:15;100794.38;;;14.96;87.76
64544;BME280;50936;51.660;5.616;2023-03-21T14:07:01;100789.38;;;15.01;85.69
64544;BME280;50936;51.660;5.616;2023-03-21T14:09:33;100782.25;;;15.00;87.01
64544;BME280;50936;51.660;5.616;2023-03-21T14:12:06;100781.91;;;15.25;86.95
64544;BME280;50936;51.660;5.616;2023-03-21T14:14:50;100770.91;;;15.36;85.68
64544;BME280;50936;51.660;5.616;2023-03-21T14:17:26;100772.75;;;15.35;85.45
64544;BME280;50936;51.660;5.616;2023-03-21T14:20:00;100769.00;;;15.27;84.44
64544;BME280;50936;51.660;5.616;2023-03-21T14:22:38;100777.69;;;15.11;84.16
64544;BME280;50936;51.660;5.616;2023-03-21T14:25:11;100776.81;;;15.00;84.08
64544;BME280;50936;51.660;5.616;2023-03-21T14:27:46;100772.44;;;14.88;85.06
64544;BME280;50936;51.660;5.616;2023-03-21T14:30:36;100763.56;;;14.86;86.69
64544;BME280;50936;51.660;5.616;2023-03-21T14:33:12;100771.91;;;14.94;85.71
64544;BME280;50936;51.660;5.616;2023-03-21T14:35:41;100762.03;;;14.93;84.74
64544;BME280;50936;51.660;5.616;2023-03-21T14:38:32;100764.69;;;14.83;85.79
64544;BME280;50936;51.660;5.616;2023-03-21T14:41:02;100764.66;;;14.74;86.09